San Lorenzo, CA

7:04 PM PDT on September 17, 2014 (GMT -0700)
Hayward Executive | Change Station
CLOSE
Current Station
Airport
Location: Hayward,
Elevation: 46 ft
Nearby Weather Stations

Elev 46 ft 37.66 °N, 122.12 °W | Updated 10 minutes ago

Clear
Clear
76 °F
Feels Like 76 °F
N
9
Wind Variable Wind from West

Today
High -- | Low -- °F
--% Chance of Precip.
Yesterday
High -- | Low -- °F
Precip. -- in
6:52 AM 7:13 PM
Waning Crescent, 31% visible
Pressure 29.77 in
Visibility 10.0 miles
Clouds Overcast 5000 ft
Dew Point 57 °F
Humidity 52%
Rainfall 0.00 in
Snow Depth 2 in , 0 in , 0 in
UV 0 out of 12
Pollen 5.10 out of 12
PM2.5 Good
Flu Activity Not available.
METAR KHWD 180154Z AUTO 27008KT 10SM OVC050 24/14 A2974 RMK AO2 WSHFT 0049 SLP080 T02440139

More Conditions Fewer Conditions

Pressure 29.77 in
Visibility 10.0 miles
Clouds Overcast 5000 ft
Dew Point 57 °F
Humidity 52%
Rainfall 0.00 in
Snow Depth 2 in , 0 in , 0 in
UV 0 out of 12
Pollen 5.10 out of 12
PM2.5 Good
Flu Activity Not available.
METAR KHWD 180154Z AUTO 27008KT 10SM OVC050 24/14 A2974 RMK AO2 WSHFT 0049 SLP080 T02440139

More Conditions Fewer Conditions

10-Day Weather Forecast

Almanac

Astronomy

Sep. 17, 2014 Rise Set
Actual Time 6:52 AM PDT 7:13 PM PDT
Civil Twilight 6:25 AM PDT 7:39 PM PDT
Nautical Twilight 5:55 AM PDT 8:09 PM PDT
Astronomical Twilight 5:23 AM PDT 8:41 PM PDT
Moon 1:01 AM PDT (9/17) 3:22 PM PDT (9/17)
Length of Visible Light 13h 13m
Length of Day
12h 20m
Tomorrow will be 2m 24s shorter.
Waning Crescent, 31% of the Moon is Illuminated
Today
Waning Crescent
Sep 24
New
Oct 1
First Quarter
Oct 8
Full
Oct 15
Last Quarter

Today's Extremes

State Highs State Lows

Community

WunderPhotos

Upload Photos

1,754,263 photos uploaded!

Nearby

Air Quality

  Air Quality AQ Index Pollutant
Yesterday Good
PM2.5
Yesterday Good
OZONE
Current Good
PM2.5
Wednesday Good
OZONE
Thursday Good
OZONE
Friday Good
OZONE
Saturday Good
PM2.5
Sunday Good
PM2.5
Monday Good
PM2.5

Snow Depth

Station Depth Elevation
Adin Mountain 2 in 6200 ft
Spratt Creek 0 in 6200 ft
Leavitt Meadows 0 in 7200 ft
CSS Lab 2 in 6900 ft
Tahoe City Cross 0 in 6750 ft

Earthquake Activity

City Distance Mag. Time & Date
Cobb, California 84 miles 2.7 1:23 PM PDT
2014-09-16
Minimum magnitude displayed is 2.5.

Coastal Water Temperatures

Place Temperature
No Stations Reporting

Nearby Weather Stations